createdAt,value
2022-11-27T00:00:36.168Z,7.70
2022-11-27T00:03:24.180Z,7.25
2022-11-27T00:06:16.066Z,7.60
2022-11-27T00:09:08.142Z,7.38
2022-11-27T00:11:55.840Z,7.00
2022-11-27T00:14:43.965Z,7.72
2022-11-27T00:17:31.435Z,7.40
2022-11-27T00:20:19.216Z,7.47
2022-11-27T00:23:06.752Z,6.70
2022-11-27T00:25:56.165Z,7.43
2022-11-27T00:28:44.068Z,7.47
2022-11-27T00:31:34.440Z,6.88
2022-11-27T00:34:22.464Z,7.03
2022-11-27T00:37:10.019Z,7.35
2022-11-27T00:39:57.747Z,6.88
2022-11-27T00:42:47.403Z,7.03
2022-11-27T00:45:35.324Z,7.20
2022-11-27T00:48:23.358Z,7.50
2022-11-27T00:51:12.967Z,9.85
2022-11-27T00:54:01.867Z,8.43
2022-11-27T00:56:49.586Z,9.68
2022-11-27T00:59:38.578Z,8.60
2022-11-27T01:02:26.312Z,9.57
2022-11-27T01:05:14.267Z,8.90
2022-11-27T01:08:02.076Z,8.52
2022-11-27T01:10:54.733Z,9.38
2022-11-27T01:13:42.567Z,6.70
2022-11-27T01:16:33.665Z,9.38
2022-11-27T01:19:21.541Z,9.10
2022-11-27T01:22:09.430Z,8.85
2022-11-27T01:24:57.298Z,8.43
2022-11-27T01:27:44.836Z,8.30
2022-11-27T01:30:32.745Z,8.07
2022-11-27T01:33:22.321Z,8.48
2022-11-27T01:36:13.009Z,7.70
2022-11-27T01:39:00.978Z,7.55
2022-11-27T01:41:49.395Z,7.50
2022-11-27T01:44:53.741Z,6.85
2022-11-27T01:47:40.898Z,6.90
2022-11-27T01:50:34.511Z,7.40
2022-11-27T01:56:09.652Z,6.80
2022-11-27T01:58:58.690Z,7.40
2022-11-27T02:01:45.696Z,7.55
2022-11-27T02:04:32.980Z,7.30
2022-11-27T02:07:22.045Z,6.82
2022-11-27T02:10:09.517Z,7.07
2022-11-27T02:13:02.259Z,7.07
2022-11-27T02:15:58.981Z,6.53
2022-11-27T02:18:55.798Z,8.15
2022-11-27T02:21:48.161Z,7.20
2022-11-27T02:24:49.814Z,6.90
2022-11-27T02:28:05.001Z,6.65
2022-11-27T02:31:00.912Z,6.05
2022-11-27T02:33:53.854Z,6.03
2022-11-27T02:36:48.759Z,6.38
2022-11-27T02:39:42.644Z,5.82
2022-11-27T02:42:32.762Z,5.03
2022-11-27T02:45:24.631Z,5.13
2022-11-27T02:48:15.018Z,4.63
2022-11-27T02:51:03.773Z,5.00
2022-11-27T02:53:54.192Z,5.03
2022-11-27T02:56:43.661Z,4.63
2022-11-27T02:59:33.880Z,5.10
2022-11-27T03:02:27.426Z,4.28
2022-11-27T03:05:20.174Z,4.40
2022-11-27T03:08:11.432Z,4.15
2022-11-27T03:11:05.452Z,4.40
2022-11-27T03:13:55.200Z,4.03
2022-11-27T03:16:52.074Z,4.10
2022-11-27T03:19:44.141Z,3.90
2022-11-27T03:22:32.571Z,3.92
2022-11-27T03:25:19.502Z,4.38
2022-11-27T03:28:09.773Z,5.03
2022-11-27T03:30:57.129Z,4.88
2022-11-27T03:33:44.006Z,4.45
2022-11-27T03:36:31.061Z,4.43
2022-11-27T03:39:20.531Z,4.40
2022-11-27T03:42:16.181Z,4.85
2022-11-27T03:45:09.402Z,4.72
2022-11-27T03:48:07.914Z,4.50
2022-11-27T03:51:04.155Z,5.15
2022-11-27T03:53:58.840Z,5.43
2022-11-27T03:56:53.902Z,4.55
2022-11-27T03:59:44.410Z,5.22
2022-11-27T04:02:40.032Z,4.88
2022-11-27T04:05:27.202Z,4.82
2022-11-27T04:08:14.324Z,4.35
2022-11-27T04:11:01.593Z,4.95
2022-11-27T04:13:52.218Z,4.55
2022-11-27T04:16:39.358Z,4.80
2022-11-27T04:19:26.576Z,5.30
2022-11-27T04:22:13.804Z,7.38
2022-11-27T04:25:00.621Z,6.70
2022-11-27T04:27:47.594Z,6.45
2022-11-27T04:30:36.188Z,7.55
2022-11-27T04:33:24.311Z,7.85
2022-11-27T04:36:11.320Z,7.50
2022-11-27T04:38:58.262Z,7.35
2022-11-27T04:41:45.883Z,7.60
2022-11-27T04:44:32.920Z,7.97
2022-11-27T04:47:21.636Z,7.28
2022-11-27T04:50:12.636Z,7.05
2022-11-27T04:53:00.017Z,6.38
2022-11-27T04:55:47.092Z,5.50
2022-11-27T04:58:34.243Z,5.10
2022-11-27T05:01:21.527Z,5.50
2022-11-27T05:04:09.794Z,4.55
2022-11-27T05:06:56.890Z,5.15
2022-11-27T05:09:44.167Z,4.78
2022-11-27T05:12:31.300Z,4.18
2022-11-27T05:15:18.531Z,4.40
2022-11-27T05:18:05.722Z,4.10
2022-11-27T05:20:59.285Z,4.15
2022-11-27T05:23:46.644Z,4.13
2022-11-27T05:26:34.460Z,3.90
2022-11-27T05:29:22.200Z,3.80
2022-11-27T05:32:09.395Z,3.95
2022-11-27T05:34:56.450Z,3.78
2022-11-27T05:37:44.711Z,3.63
2022-11-27T05:40:31.882Z,3.60
2022-11-27T05:43:18.891Z,3.78
2022-11-27T05:46:08.123Z,4.22
2022-11-27T05:48:55.144Z,3.40
2022-11-27T05:51:49.139Z,3.90
2022-11-27T05:54:40.187Z,4.00
2022-11-27T05:57:28.286Z,3.65
2022-11-27T06:00:16.259Z,3.30
2022-11-27T06:03:03.391Z,3.53
2022-11-27T06:05:50.460Z,3.47
2022-11-27T06:08:38.374Z,3.50
2022-11-27T06:11:26.584Z,3.33
2022-11-27T06:14:13.510Z,3.33
2022-11-27T06:17:00.731Z,3.17
2022-11-27T06:19:47.533Z,3.65
2022-11-27T06:22:34.729Z,3.30
2022-11-27T06:25:21.700Z,3.05
2022-11-27T06:28:10.081Z,2.65
2022-11-27T06:30:57.250Z,3.40
2022-11-27T06:33:44.240Z,3.15
2022-11-27T06:36:33.441Z,3.20
2022-11-27T06:39:20.571Z,3.35
2022-11-27T06:42:07.580Z,3.00
2022-11-27T06:44:56.079Z,3.30
2022-11-27T06:47:43.180Z,3.10
2022-11-27T06:50:30.201Z,3.30
2022-11-27T06:53:17.898Z,3.30
2022-11-27T06:56:04.970Z,3.22
2022-11-27T06:58:53.663Z,3.67
2022-11-27T07:01:43.059Z,3.83
2022-11-27T07:04:30.290Z,3.50
2022-11-27T07:07:17.591Z,3.70
2022-11-27T07:10:05.020Z,3.33
2022-11-27T07:12:52.290Z,3.60
2022-11-27T07:15:39.291Z,3.22
2022-11-27T07:18:27.423Z,4.30
2022-11-27T07:21:14.439Z,3.40
2022-11-27T07:24:02.472Z,3.47
2022-11-27T07:26:49.590Z,4.10
2022-11-27T07:29:36.905Z,4.35
2022-11-27T07:32:24.170Z,4.18
2022-11-27T07:35:12.407Z,4.20
2022-11-27T07:37:59.231Z,4.25
2022-11-27T07:40:46.481Z,4.63
2022-11-27T07:43:35.560Z,4.60
2022-11-27T07:46:25.510Z,4.47
2022-11-27T07:49:12.456Z,4.47
2022-11-27T07:52:00.874Z,4.85
2022-11-27T07:54:47.822Z,5.32
2022-11-27T07:57:35.023Z,5.03
2022-11-27T08:00:22.996Z,5.43
2022-11-27T08:03:11.856Z,5.18
2022-11-27T08:05:59.132Z,5.93
2022-11-27T08:08:47.858Z,6.20
2022-11-27T08:11:35.328Z,5.78
2022-11-27T08:14:22.886Z,7.68
2022-11-27T08:17:13.500Z,8.02
2022-11-27T08:20:00.838Z,7.65
2022-11-27T08:22:48.401Z,8.02
2022-11-27T08:25:38.601Z,9.02
2022-11-27T08:28:25.717Z,9.00
2022-11-27T08:31:15.170Z,8.68
2022-11-27T08:34:02.188Z,9.10
2022-11-27T08:36:49.378Z,9.35
2022-11-27T08:39:36.869Z,9.18
2022-11-27T08:42:25.463Z,9.25
2022-11-27T08:45:12.674Z,8.95
2022-11-27T08:48:00.043Z,9.27
2022-11-27T08:50:47.931Z,9.38
2022-11-27T08:53:36.141Z,8.57
2022-11-27T08:56:25.897Z,9.02
2022-11-27T08:59:14.291Z,8.77
2022-11-27T09:02:01.251Z,8.93
2022-11-27T09:04:48.462Z,8.15
2022-11-27T09:07:35.704Z,8.48
2022-11-27T09:10:23.651Z,8.23
2022-11-27T09:13:10.692Z,7.70
2022-11-27T09:16:00.214Z,7.95
2022-11-27T09:18:48.852Z,7.22
2022-11-27T09:21:35.908Z,7.22
2022-11-27T09:24:23.082Z,6.97
2022-11-27T09:27:10.241Z,6.85
2022-11-27T09:29:57.382Z,6.60
2022-11-27T09:32:45.683Z,5.53
2022-11-27T09:35:33.021Z,5.97
2022-11-27T09:38:19.931Z,6.05
2022-11-27T09:41:29.420Z,5.40
2022-11-27T09:44:26.988Z,5.50
2022-11-27T09:47:22.820Z,5.55
2022-11-27T09:50:18.439Z,5.00
2022-11-27T09:53:12.165Z,6.13
2022-11-27T09:56:03.489Z,6.88
2022-11-27T09:58:57.601Z,6.05
2022-11-27T10:01:49.389Z,6.07
2022-11-27T10:04:57.930Z,5.90
2022-11-27T10:08:11.288Z,6.32
2022-11-27T10:11:11.543Z,6.50
2022-11-27T10:14:12.093Z,5.43
2022-11-27T10:17:03.978Z,5.63
2022-11-27T10:19:59.302Z,5.47
2022-11-27T10:22:57.015Z,6.28
2022-11-27T10:25:50.738Z,6.30
2022-11-27T10:28:42.730Z,6.10
2022-11-27T10:31:37.894Z,6.13
2022-11-27T10:34:32.561Z,5.65
2022-11-27T10:37:24.932Z,5.45
2022-11-27T10:40:23.890Z,5.55
2022-11-27T10:43:17.092Z,5.30
2022-11-27T10:46:11.309Z,5.53
2022-11-27T10:48:59.494Z,5.18
2022-11-27T10:51:46.816Z,5.03
2022-11-27T10:54:39.305Z,5.85
2022-11-27T10:57:46.321Z,5.90
2022-11-27T11:00:33.715Z,5.50
2022-11-27T11:03:21.025Z,5.00
2022-11-27T11:06:21.516Z,4.57
2022-11-27T11:09:16.445Z,4.20
2022-11-27T11:12:19.134Z,4.10
2022-11-27T11:15:14.825Z,4.90
2022-11-27T11:18:01.564Z,4.40
2022-11-27T11:20:51.918Z,4.30
2022-11-27T11:23:42.485Z,3.88
2022-11-27T11:26:32.246Z,4.75
2022-11-27T11:29:30.111Z,4.45
2022-11-27T11:32:25.184Z,4.25
2022-11-27T11:35:27.883Z,4.32
2022-11-27T11:38:18.904Z,3.95
2022-11-27T11:41:09.854Z,3.92
2022-11-27T11:44:02.169Z,3.92
2022-11-27T11:46:55.025Z,3.60
2022-11-27T11:49:44.225Z,3.63
2022-11-27T11:52:45.304Z,4.88
2022-11-27T11:55:40.107Z,4.30
2022-11-27T11:58:40.287Z,4.70
2022-11-27T12:01:45.311Z,4.70
2022-11-27T12:04:51.067Z,4.28
2022-11-27T12:07:55.859Z,4.63
2022-11-27T12:10:54.157Z,4.43
2022-11-27T12:13:56.771Z,4.97
2022-11-27T12:17:01.718Z,4.95
2022-11-27T12:20:08.388Z,5.00
2022-11-27T12:23:17.960Z,4.47
2022-11-27T12:26:12.242Z,4.65
2022-11-27T12:29:18.647Z,5.03
2022-11-27T12:32:20.690Z,5.20
2022-11-27T12:35:28.549Z,5.68
2022-11-27T12:38:30.520Z,5.78
2022-11-27T12:41:34.073Z,5.22
2022-11-27T12:44:29.991Z,5.90
2022-11-27T12:47:23.101Z,5.45
2022-11-27T12:53:16.843Z,6.20
2022-11-27T12:56:13.921Z,6.32
2022-11-27T12:59:17.815Z,6.30
2022-11-27T13:02:23.975Z,6.15
2022-11-27T13:05:14.715Z,6.97
2022-11-27T13:08:07.515Z,6.22
2022-11-27T13:10:59.506Z,6.70
2022-11-27T13:13:50.167Z,6.50
2022-11-27T13:16:41.371Z,7.63
2022-11-27T13:19:33.584Z,7.07
2022-11-27T13:22:27.825Z,6.95
2022-11-27T13:25:16.508Z,7.03
2022-11-27T13:28:07.186Z,7.30
2022-11-27T13:30:59.747Z,7.57
2022-11-27T13:33:47.506Z,7.93
2022-11-27T13:36:40.248Z,7.18
2022-11-27T13:39:31.329Z,8.60
2022-11-27T13:42:22.749Z,8.30
2022-11-27T13:45:23.131Z,9.25
2022-11-27T13:48:30.379Z,8.40
2022-11-27T13:51:27.351Z,9.52
2022-11-27T13:54:16.150Z,9.57
2022-11-27T13:57:13.309Z,9.02
2022-11-27T14:00:02.453Z,9.75
2022-11-27T14:03:02.610Z,9.60
2022-11-27T14:05:49.959Z,9.50
2022-11-27T14:08:38.763Z,9.48
2022-11-27T14:11:40.244Z,10.00
2022-11-27T14:14:29.685Z,8.88
2022-11-27T14:17:28.385Z,9.77
2022-11-27T14:20:29.041Z,9.50
2022-11-27T14:23:27.521Z,10.05
2022-11-27T14:26:23.320Z,10.18
2022-11-27T14:29:13.444Z,10.63
2022-11-27T14:32:02.847Z,10.25
2022-11-27T14:34:50.250Z,9.80
2022-11-27T14:37:39.004Z,9.95
2022-11-27T14:40:29.498Z,9.90
2022-11-27T14:43:18.665Z,10.23
2022-11-27T14:46:08.411Z,10.23
2022-11-27T14:48:57.278Z,10.70
2022-11-27T14:51:44.716Z,9.93
2022-11-27T14:54:38.343Z,10.93
2022-11-27T14:57:27.728Z,10.50
2022-11-27T15:00:19.320Z,10.38
2022-11-27T15:03:11.367Z,11.18
2022-11-27T15:06:01.331Z,10.88
2022-11-27T15:09:09.087Z,11.02
2022-11-27T15:12:04.351Z,11.82
2022-11-27T15:14:58.222Z,10.57
2022-11-27T15:17:48.509Z,10.93
2022-11-27T15:20:39.681Z,10.95
2022-11-27T15:23:29.949Z,10.70
2022-11-27T15:26:32.217Z,10.75
2022-11-27T15:29:36.300Z,10.90
2022-11-27T15:32:25.753Z,11.25
2022-11-27T15:35:16.130Z,11.55
2022-11-27T15:38:11.912Z,11.48
2022-11-27T15:41:01.761Z,11.15
2022-11-27T15:43:49.055Z,11.02
2022-11-27T15:46:37.539Z,11.55
2022-11-27T15:49:25.046Z,11.02
2022-11-27T15:52:12.002Z,11.68
2022-11-27T15:54:59.781Z,10.57
2022-11-27T15:57:47.424Z,8.68
2022-11-27T16:00:34.450Z,9.82
2022-11-27T16:03:23.102Z,9.20
2022-11-27T16:06:11.402Z,9.05
2022-11-27T16:08:59.811Z,9.57
2022-11-27T16:11:47.218Z,9.15
2022-11-27T16:14:34.237Z,9.80
2022-11-27T16:17:21.573Z,9.38
2022-11-27T16:20:10.964Z,9.65
2022-11-27T16:22:58.110Z,9.38
2022-11-27T16:25:45.449Z,10.32
2022-11-27T16:28:32.825Z,10.68
2022-11-27T16:31:21.613Z,10.48
2022-11-27T16:34:08.800Z,10.75
2022-11-27T16:37:00.937Z,10.70
2022-11-27T16:39:47.809Z,10.93
2022-11-27T16:42:35.080Z,10.10
2022-11-27T16:45:23.065Z,11.30
2022-11-27T16:48:10.578Z,10.63
2022-11-27T16:51:04.126Z,11.18
2022-11-27T16:56:40.735Z,10.82
2022-11-27T16:59:28.647Z,11.77
2022-11-27T17:02:15.865Z,11.50
2022-11-27T17:05:03.669Z,11.60
2022-11-27T17:07:51.001Z,11.38
2022-11-27T17:10:39.767Z,12.60
2022-11-27T17:13:26.856Z,11.85
2022-11-27T17:16:15.009Z,12.73
2022-11-27T17:19:03.831Z,13.15
2022-11-27T17:21:52.288Z,12.13
2022-11-27T17:24:40.810Z,11.93
2022-11-27T17:27:31.039Z,12.13
2022-11-27T17:30:19.011Z,12.45
2022-11-27T17:33:07.392Z,11.60
2022-11-27T17:35:54.932Z,11.07
2022-11-27T17:38:43.344Z,11.10
2022-11-27T17:41:30.983Z,11.80
2022-11-27T17:44:19.832Z,11.52
2022-11-27T17:47:06.788Z,10.93
2022-11-27T17:49:54.213Z,11.63
2022-11-27T17:52:41.261Z,11.10
2022-11-27T17:55:28.889Z,12.30
2022-11-27T17:58:16.100Z,11.95
2022-11-27T18:01:06.261Z,12.68
2022-11-27T18:03:56.810Z,11.40
2022-11-27T18:06:44.581Z,11.93
2022-11-27T18:09:31.932Z,11.05
2022-11-27T18:12:18.833Z,10.40
2022-11-27T18:15:09.757Z,11.18
2022-11-27T18:17:58.546Z,10.32
2022-11-27T18:20:47.005Z,11.10
2022-11-27T18:23:34.784Z,10.15
2022-11-27T18:26:39.238Z,10.50
2022-11-27T18:29:30.044Z,10.75
2022-11-27T18:32:19.079Z,10.85
2022-11-27T18:35:09.226Z,10.02
2022-11-27T18:37:57.284Z,11.60
2022-11-27T18:40:46.153Z,10.95
2022-11-27T18:43:33.845Z,11.10
2022-11-27T18:46:23.060Z,11.38
2022-11-27T18:49:10.823Z,11.95
2022-11-27T18:52:00.285Z,11.65
2022-11-27T18:54:48.614Z,11.20
2022-11-27T18:57:36.046Z,11.95
2022-11-27T19:00:23.706Z,11.18
2022-11-27T19:03:11.651Z,11.13
2022-11-27T19:06:02.227Z,11.70
2022-11-27T19:08:51.488Z,11.75
2022-11-27T19:11:40.633Z,11.80
2022-11-27T19:14:28.796Z,12.60
2022-11-27T19:17:18.857Z,13.07
2022-11-27T19:20:08.260Z,12.82
2022-11-27T19:22:56.870Z,14.23
2022-11-27T19:25:46.900Z,13.35
2022-11-27T19:28:34.598Z,13.35
2022-11-27T19:31:23.398Z,13.52
2022-11-27T19:34:14.104Z,13.77
2022-11-27T19:37:01.316Z,13.43
2022-11-27T19:39:50.651Z,13.88
2022-11-27T19:42:39.400Z,13.73
2022-11-27T19:45:26.928Z,12.68
2022-11-27T19:48:16.554Z,14.15
2022-11-27T19:53:55.141Z,13.95
2022-11-27T19:56:44.551Z,14.27
2022-11-27T19:59:33.796Z,13.95
2022-11-27T20:02:21.217Z,14.05
2022-11-27T20:05:09.472Z,13.88
2022-11-27T20:07:57.942Z,15.48
2022-11-27T20:10:51.088Z,14.80
2022-11-27T20:13:38.602Z,14.10
2022-11-27T20:16:27.808Z,14.40
2022-11-27T20:19:15.081Z,14.57
2022-11-27T20:22:02.141Z,15.35
2022-11-27T20:25:17.169Z,15.65
2022-11-27T20:27:57.374Z,15.00
2022-11-27T20:30:44.773Z,15.32
2022-11-27T20:33:34.630Z,16.75
2022-11-27T20:36:23.130Z,16.63
2022-11-27T20:39:19.249Z,16.90
2022-11-27T20:42:11.191Z,16.13
2022-11-27T20:44:58.839Z,15.95
2022-11-27T20:47:46.073Z,15.38
2022-11-27T20:50:34.982Z,16.48
2022-11-27T20:53:23.729Z,14.80
2022-11-27T20:56:13.231Z,13.95
2022-11-27T20:59:01.352Z,14.30
2022-11-27T21:01:48.285Z,14.95
2022-11-27T21:04:36.031Z,14.05
2022-11-27T21:07:25.496Z,15.13
2022-11-27T21:10:15.811Z,14.80
2022-11-27T21:13:02.874Z,15.05
2022-11-27T21:15:50.352Z,14.75
2022-11-27T21:18:38.930Z,14.02
2022-11-27T21:21:26.322Z,13.93
2022-11-27T21:24:15.871Z,14.48
2022-11-27T21:27:02.826Z,14.95
2022-11-27T21:29:50.295Z,13.65
2022-11-27T21:32:37.391Z,14.45
2022-11-27T21:35:28.727Z,14.40
2022-11-27T21:38:19.753Z,14.65
2022-11-27T21:41:08.495Z,13.30
2022-11-27T21:43:58.284Z,14.77
2022-11-27T21:46:47.934Z,13.18
2022-11-27T21:49:36.346Z,14.63
2022-11-27T21:52:24.735Z,14.85
2022-11-27T21:55:12.472Z,13.55
2022-11-27T21:58:00.978Z,12.82
2022-11-27T22:00:51.253Z,13.93
2022-11-27T22:03:42.261Z,13.30
2022-11-27T22:06:32.576Z,13.35
2022-11-27T22:09:20.117Z,12.43
2022-11-27T22:12:07.305Z,14.10
2022-11-27T22:14:56.075Z,13.45
2022-11-27T22:17:43.047Z,12.82
2022-11-27T22:20:30.417Z,13.18
2022-11-27T22:23:17.759Z,14.32
2022-11-27T22:26:05.914Z,13.05
2022-11-27T22:28:53.147Z,12.65
2022-11-27T22:31:42.208Z,12.40
2022-11-27T22:34:29.220Z,12.60
2022-11-27T22:37:16.566Z,11.85
2022-11-27T22:40:03.606Z,12.18
2022-11-27T22:42:50.723Z,12.45
2022-11-27T22:45:39.923Z,12.50
2022-11-27T22:48:29.046Z,12.65
2022-11-27T22:51:16.300Z,12.30
2022-11-27T22:54:05.092Z,11.98
2022-11-27T22:56:53.066Z,12.27
2022-11-27T22:59:40.781Z,12.30
2022-11-27T23:02:28.101Z,13.20
2022-11-27T23:05:16.940Z,12.18
2022-11-27T23:08:03.901Z,12.15
2022-11-27T23:10:52.640Z,12.40
2022-11-27T23:13:42.770Z,11.25
2022-11-27T23:16:32.370Z,12.20
2022-11-27T23:19:19.756Z,11.32
2022-11-27T23:22:08.323Z,11.45
2022-11-27T23:24:55.628Z,11.20
2022-11-27T23:27:44.022Z,11.10
2022-11-27T23:30:31.188Z,11.90
2022-11-27T23:33:18.130Z,12.15
2022-11-27T23:36:06.886Z,11.48
2022-11-27T23:38:55.600Z,11.50
2022-11-27T23:41:43.625Z,12.20
2022-11-27T23:44:30.649Z,11.95
2022-11-27T23:47:18.100Z,12.35
2022-11-27T23:50:05.421Z,12.80
2022-11-27T23:52:55.310Z,11.98
2022-11-27T23:55:43.772Z,12.00
2022-11-27T23:58:31.130Z,12.20
